METAR Formatted Surface Weather Observation
Issued by NWS

Home | Current Version | Previous Version | Text Only | Print | Product List | Glossary On
Versions: 1 2 3 4 5 6 7 8 9 10 11 12 13 14 15 16 17 18 19
757
SAUS44 KLZK 181554
MTRMWT
METAR KMWT 181553Z AUTO 00000KT 10SM CLR 19/09 A3020 RMK AO2 SLP225
T01940089



USA.gov is the U.S. government's official web portal to all federal, state and local government web resources and services.